GBYD

Banjul International Airport

Banjul, Gambia
METAR GBYD 190600Z 35008KT CAVOK 19/06 Q1015
Observed Flight Rules
Jan-19 @ 06:00 UTC (32 minutes ago) Visual Flight Rules
Wind Visibility Clouds
350° at 8 knots 10,000+ meters
  • Clear skies
Temperatures Readings
Current 19°C / 66°F
Dewpoint 6°C / 43°F
Humidity 43%
Altimeter 29.97" Hg
Pressure 1014.92 hPa
Elevation 36
METAR GBYD 190600Z 35008KT CAVOK 19/06 Q1015
Observed Flight Rules
Jan-19 @ 06:00 UTC
(32 minutes ago)
VFR
Wind Visibility
350° at 8 knots 10,000+ meters
Clouds
  • Clear skies
Temperature Dewpoint
19°C / 66°F 6°C / 43°F
Humidity Altimeter Pressure
43% 29.97" Hg 1014.92 hPa